Harmonyville, Vermont
Current Conditions -  °F | °C
As of 6:54 AM on Saturday 20 Dec 2014 (Local Time) from KVSF Reporting Station
Clear Clear  
Wind Chill: 16°   Ceiling: Unl
Heat Index: 16°   Visibility: 10mi
Dew Point: 13°   Wind: 0mph
Humidity: 88%   Direction: NA
Pressure: 30.28"   Gusts: NA
Location:  43.0642°N, 72.6668°W
Report Text: KVSF 201154Z AUTO 00000KT 10SM CLR M09/M11 A3028 RMK AO2 SLP266 I1001 I6001 T10891106 11056 21094 53021 TSNO
Loading
Personal Weather Stations






























Interactive Weather Map New forecast layout! Learn more

10-Day Weather Forecast

Advertisements
Track Severe Weather on mobile